Etusivu
METAR-TAF:

METAR-TAF

Lentoasemat :

Wharton, Texas, Yhdysvallat

Leveyspiiri: 29-15-15N, Pituuspiiri: 096-09-15W, korkeus merenpinnasta: 31 m

Tämänhetkinen sää

Tämä raportti tehtiin 32 minuuttia sitten, kello 18.35 UTC
Tuuli 9 kn idästä/kaakosta
Lämpötila 21°C
Kosteus 88%
Ilmanpaine 1020 hPa
Näkyvyys: 8.0 km
Pilvistä 600 ft:n korkeudessa
utua

METAR: KARM 251835Z AUTO 12009KT 5SM BR OVC006 21/19 A3011 RMK AO2 T02050190

Aika: 13:07 (19:07 UTC)


TAF: puuttuu

Säähavainnot ja -ennusteet yli 4000 lentoasemalta (METAR- ja TAF-raportit).

Käytössä olevat sääasemat on merkitty karttaan keltaisilla ja punaisilla pisteillä.

Aseta hiiri pisteen päälle nähdäksesi sääaseman nimen.

Klikkaa sitten nähdäksesi säähavainnot ja -ennusteet.

Kartan vaihtaminen: klikkaa mustalla rastilla varustettuja vihreitä pisteitä, niin voit zoomata sisään; viivalla varustettua vihreää pistettä, niin voit zoomata ulos tai vihreitä nuolia, niin pääset viereisille kartoille.


METAR-TAF: